Time;durP1;ratioP1;P1;durP2;ratioP2;P2;SDS_P1;SDS_P2;PMS_P1;PMS_P2;Temp;Humidity;BMP_temperature;BMP_pressure;BME280_temperature;BME280_humidity;BME280_pressure;Samples;Min_cycle;Max_cycle;Signal;HPM_P1;HPM_P2
2022/06/05 00:02:27;;;;;;;;;;;19.50;66.10;;;;;;5032538;28;1906;-71
2022/06/05 00:05:02;;;;;;;;;;;19.50;66.10;;;;;;5031538;28;1284;-70
2022/06/05 00:07:40;;;;;;;;;;;19.50;66.10;;;;;;5031217;28;1368;-70
2022/06/05 00:10:13;;;;;;;;;;;19.50;66.10;;;;;;5031245;28;1299;-71
2022/06/05 00:12:38;;;;;;;;;;;19.50;66.10;;;;;;5032530;28;1347;-71
2022/06/05 00:15:04;;;;;;;;;;;19.50;66.10;;;;;;5032845;28;1295;-70
2022/06/05 00:17:29;;;;;;;;;;;19.50;66.10;;;;;;5032775;28;1268;-71
2022/06/05 00:19:55;;;;;;;;;;;19.50;66.10;;;;;;5032099;28;1170;-71
2022/06/05 00:22:20;;;;;;;;;;;19.50;66.10;;;;;;5032357;28;1898;-71
2022/06/05 00:24:46;;;;;;;;;;;19.50;66.10;;;;;;5032534;28;1347;-71
2022/06/05 00:27:20;;;;;;;;;;;19.50;66.10;;;;;;5031036;28;1164;-71
2022/06/05 00:29:48;;;;;;;;;;;19.50;66.10;;;;;;5031442;28;1273;-71
2022/06/05 00:32:17;;;;;;;;;;;19.50;66.10;;;;;;5032205;28;1253;-71
2022/06/05 00:34:42;;;;;;;;;;;19.50;66.20;;;;;;5032384;28;1361;-71
2022/06/05 00:37:11;;;;;;;;;;;19.50;66.10;;;;;;5036084;28;1258;-71
2022/06/05 00:39:42;;;;;;;;;;;19.50;66.10;;;;;;5035885;28;1582;-71
2022/06/05 00:42:11;;;;;;;;;;;19.50;66.10;;;;;;5034429;28;1910;-71
2022/06/05 00:44:38;;;;;;;;;;;19.50;66.20;;;;;;5034682;28;1268;-70
2022/06/05 00:47:04;;;;;;;;;;;19.50;66.90;;;;;;5034518;28;1310;-71
2022/06/05 00:49:37;;;;;;;;;;;19.50;66.20;;;;;;5035775;28;1065;-71
2022/06/05 00:52:04;;;;;;;;;;;19.50;66.20;;;;;;5034504;28;1370;-71
2022/06/05 00:54:29;;;;;;;;;;;19.50;66.20;;;;;;5034458;28;1271;-71
2022/06/05 00:56:54;;;;;;;;;;;19.50;66.20;;;;;;5035803;28;1311;-71
2022/06/05 00:59:20;;;;;;;;;;;19.50;66.20;;;;;;5034429;28;1069;-71
2022/06/05 01:01:47;;;;;;;;;;;19.50;66.20;;;;;;5033853;28;1918;-71
2022/06/05 01:04:12;;;;;;;;;;;19.50;66.20;;;;;;5035579;28;1408;-71
2022/06/05 01:06:38;;;;;;;;;;;19.50;66.20;;;;;;5035658;28;1450;-71
2022/06/05 01:09:04;;;;;;;;;;;19.50;66.20;;;;;;5035525;28;1246;-71
2022/06/05 01:11:33;;;;;;;;;;;19.50;66.20;;;;;;5034117;28;1377;-72
2022/06/05 01:14:02;;;;;;;;;;;19.50;66.20;;;;;;5034338;28;1358;-71
2022/06/05 01:16:27;;;;;;;;;;;19.50;66.20;;;;;;5035260;28;1409;-71
2022/06/05 01:18:53;;;;;;;;;;;19.50;66.20;;;;;;5035267;28;1107;-70
2022/06/05 01:21:30;;;;;;;;;;;19.50;66.20;;;;;;5034927;28;1902;-71
2022/06/05 01:24:01;;;;;;;;;;;19.50;66.20;;;;;;5035176;28;1317;-71
2022/06/05 01:26:27;;;;;;;;;;;19.50;66.20;;;;;;5033745;28;1504;-71
2022/06/05 01:28:53;;;;;;;;;;;19.50;66.20;;;;;;5033599;28;1428;-71
2022/06/05 01:31:37;;;;;;;;;;;19.50;67.00;;;;;;5034856;28;1122;-71
2022/06/05 01:34:12;;;;;;;;;;;19.50;66.30;;;;;;5035012;28;1100;-71
2022/06/05 01:36:44;;;;;;;;;;;19.50;66.20;;;;;;5033730;28;1255;-71
2022/06/05 01:39:24;;;;;;;;;;;19.50;66.20;;;;;;5033387;28;1604;-71
2022/06/05 01:41:50;;;;;;;;;;;19.50;66.30;;;;;;5033466;28;1965;-71
2022/06/05 01:44:20;;;;;;;;;;;19.50;66.30;;;;;;5033712;28;1309;-71
2022/06/05 01:46:45;;;;;;;;;;;19.50;66.30;;;;;;5032912;28;1286;-71
2022/06/05 01:49:23;;;;;;;;;;;19.50;66.30;;;;;;5034706;28;1291;-71
2022/06/05 01:51:52;;;;;;;;;;;19.50;66.30;;;;;;5033251;28;1470;-71
2022/06/05 01:54:22;;;;;;;;;;;19.50;66.30;;;;;;5034752;28;1377;-71
2022/06/05 01:56:54;;;;;;;;;;;19.50;66.30;;;;;;5034567;28;1462;-71
2022/06/05 01:59:19;;;;;;;;;;;19.50;66.30;;;;;;5033422;28;1324;-71
2022/06/05 02:01:46;;;;;;;;;;;19.50;66.30;;;;;;5034229;28;1906;-71
2022/06/05 02:04:22;;;;;;;;;;;19.50;66.30;;;;;;5033185;28;1128;-71
2022/06/05 02:06:48;;;;;;;;;;;19.50;66.30;;;;;;5033529;28;1316;-71
2022/06/05 02:09:18;;;;;;;;;;;19.50;66.30;;;;;;5016580;28;1340;-71
2022/06/05 02:11:44;;;;;;;;;;;19.50;66.30;;;;;;5033039;28;1088;-71
2022/06/05 02:14:09;;;;;;;;;;;19.50;66.30;;;;;;5034242;28;1199;-71
2022/06/05 02:16:36;;;;;;;;;;;19.50;66.30;;;;;;5032875;28;1221;-71
2022/06/05 02:19:02;;;;;;;;;;;19.50;66.30;;;;;;5023268;28;1398;-71
2022/06/05 02:21:28;;;;;;;;;;;19.50;66.30;;;;;;5032746;28;1959;-71
2022/06/05 02:23:54;;;;;;;;;;;19.50;66.30;;;;;;5034075;28;1123;-71
2022/06/05 02:26:19;;;;;;;;;;;19.50;66.30;;;;;;5032837;28;1197;-71
2022/06/05 02:28:44;;;;;;;;;;;19.50;66.30;;;;;;5033945;28;1336;-71
2022/06/05 02:31:10;;;;;;;;;;;19.50;66.30;;;;;;5033662;28;1059;-71
2022/06/05 02:33:41;;;;;;;;;;;19.50;66.30;;;;;;5033763;28;1363;-71
2022/06/05 02:36:17;;;;;;;;;;;19.50;66.30;;;;;;5033939;28;1318;-71
2022/06/05 02:38:42;;;;;;;;;;;19.50;66.30;;;;;;5032454;28;1335;-71
2022/06/05 02:41:19;;;;;;;;;;;19.50;66.30;;;;;;5033489;28;1910;-71
2022/06/05 02:44:29;;;;;;;;;;;19.50;66.30;;;;;;5032415;28;1362;-71
2022/06/05 02:46:42;;;;;;;;;;;19.50;66.30;;;;;;5033415;28;1384;-71
2022/06/05 02:49:10;;;;;;;;;;;19.50;66.30;;;;;;5033737;28;1134;-71
2022/06/05 02:51:37;;;;;;;;;;;19.50;66.30;;;;;;5032228;28;1269;-71
2022/06/05 02:54:03;;;;;;;;;;;19.50;66.30;;;;;;5032315;28;1395;-71
2022/06/05 02:56:29;;;;;;;;;;;19.50;66.30;;;;;;5033337;28;1383;-71
2022/06/05 02:58:55;;;;;;;;;;;19.50;66.30;;;;;;5032803;28;1065;-71
2022/06/05 03:04:07;;;;;;;;;;;19.50;66.30;;;;;;5032691;28;1300;-71
2022/06/05 03:06:33;;;;;;;;;;;19.50;66.30;;;;;;5032023;28;1761;-71
2022/06/05 03:08:58;;;;;;;;;;;19.50;66.30;;;;;;5031887;28;1402;-71
2022/06/05 03:11:24;;;;;;;;;;;19.50;66.30;;;;;;5032047;28;1573;-71
2022/06/05 03:13:49;;;;;;;;;;;19.50;66.30;;;;;;5033191;28;1122;-71
2022/06/05 03:16:15;;;;;;;;;;;19.50;66.30;;;;;;5033049;28;1402;-71
2022/06/05 03:18:40;;;;;;;;;;;19.50;66.40;;;;;;5025637;28;1375;-71
2022/06/05 03:21:06;;;;;;;;;;;19.50;66.40;;;;;;5031030;28;1907;-71
2022/06/05 03:23:32;;;;;;;;;;;19.50;66.40;;;;;;5032888;28;1345;-71
2022/06/05 03:25:57;;;;;;;;;;;19.50;67.10;;;;;;5032958;28;1342;-71
2022/06/05 03:28:23;;;;;;;;;;;19.50;66.40;;;;;;5031835;28;1312;-71
2022/06/05 03:30:48;;;;;;;;;;;19.50;66.30;;;;;;5032754;28;1358;-71
2022/06/05 03:33:14;;;;;;;;;;;19.50;66.40;;;;;;5031885;28;1413;-71
2022/06/05 03:35:40;;;;;;;;;;;19.50;66.40;;;;;;5032810;28;1381;-71
2022/06/05 03:38:05;;;;;;;;;;;19.50;66.40;;;;;;5031609;28;1032;-72
2022/06/05 03:40:31;;;;;;;;;;;19.50;66.40;;;;;;5024450;28;2305;-68
2022/06/05 03:42:56;;;;;;;;;;;19.40;66.30;;;;;;5027703;28;1902;-69
2022/06/05 03:45:22;;;;;;;;;;;19.50;66.40;;;;;;5053009;22;1981;-68
2022/06/05 03:47:47;;;;;;;;;;;19.50;66.40;;;;;;4997687;28;1703;-68
2022/06/05 03:50:14;;;;;;;;;;;19.50;66.40;;;;;;4976138;28;1546;-68
2022/06/05 03:52:41;;;;;;;;;;;19.50;66.40;;;;;;4975684;28;1226;-69
2022/06/05 03:55:07;;;;;;;;;;;19.50;66.40;;;;;;4976685;28;1350;-67
2022/06/05 03:57:32;;;;;;;;;;;19.50;66.40;;;;;;5011547;28;1304;-68
2022/06/05 03:59:57;;;;;;;;;;;19.50;66.40;;;;;;4993666;28;1310;-68
2022/06/05 04:02:25;;;;;;;;;;;19.50;66.40;;;;;;5011926;28;1910;-68
2022/06/05 04:04:50;;;;;;;;;;;19.50;66.40;;;;;;4994022;28;1288;-68
2022/06/05 04:07:16;;;;;;;;;;;19.50;66.40;;;;;;5011401;28;1320;-69
2022/06/05 04:09:41;;;;;;;;;;;19.50;66.40;;;;;;5011740;28;1299;-68
2022/06/05 04:12:07;;;;;;;;;;;19.50;66.40;;;;;;5015461;28;1068;-67
2022/06/05 04:14:32;;;;;;;;;;;19.50;66.40;;;;;;4998233;28;1315;-68
2022/06/05 04:16:58;;;;;;;;;;;19.50;66.40;;;;;;4998409;28;1361;-66
2022/06/05 04:19:23;;;;;;;;;;;19.50;66.40;;;;;;5015382;28;1649;-67
2022/06/05 04:21:49;;;;;;;;;;;19.50;66.40;;;;;;5014693;28;1969;-67
2022/06/05 04:24:15;;;;;;;;;;;19.50;66.40;;;;;;4981640;28;1320;-67
2022/06/05 04:26:40;;;;;;;;;;;19.50;66.40;;;;;;4998324;28;1201;-67
2022/06/05 04:29:06;;;;;;;;;;;19.50;66.40;;;;;;5015830;28;1164;-66
2022/06/05 04:31:32;;;;;;;;;;;19.40;66.40;;;;;;5015198;28;1104;-67
2022/06/05 04:33:58;;;;;;;;;;;19.50;66.50;;;;;;4998006;28;1369;-67
2022/06/05 04:36:24;;;;;;;;;;;19.50;66.40;;;;;;4997476;28;1209;-69
2022/06/05 04:38:49;;;;;;;;;;;19.50;66.40;;;;;;4998261;28;2070;-70
2022/06/05 04:41:15;;;;;;;;;;;19.50;66.50;;;;;;5015541;28;1906;-68
2022/06/05 04:43:41;;;;;;;;;;;19.40;66.40;;;;;;5015179;28;1060;-70
2022/06/05 04:46:06;;;;;;;;;;;19.40;66.40;;;;;;4997765;28;1362;-68
2022/06/05 04:48:32;;;;;;;;;;;19.40;66.40;;;;;;5003072;28;1119;-69
2022/06/05 04:51:05;;;;;;;;;;;19.50;66.50;;;;;;4998305;28;1203;-69
2022/06/05 04:53:30;;;;;;;;;;;19.40;66.40;;;;;;5015764;28;1300;-67
2022/06/05 04:55:56;;;;;;;;;;;19.50;66.40;;;;;;4997639;28;1514;-70
2022/06/05 04:58:21;;;;;;;;;;;19.50;66.50;;;;;;5014947;28;1128;-70
2022/06/05 05:00:46;;;;;;;;;;;19.50;66.50;;;;;;5014905;28;1096;-70
2022/06/05 05:03:12;;;;;;;;;;;19.40;66.40;;;;;;5016419;28;1902;-70
2022/06/05 05:05:37;;;;;;;;;;;19.50;65.40;;;;;;5015602;28;1316;-70
2022/06/05 05:08:03;;;;;;;;;;;19.40;64.50;;;;;;5014810;28;1124;-72
2022/06/05 05:10:28;;;;;;;;;;;19.50;64.70;;;;;;4997567;28;1108;-73
2022/06/05 05:12:54;;;;;;;;;;;19.40;64.20;;;;;;4997847;28;1270;-69
2022/06/05 05:15:19;;;;;;;;;;;19.40;64.30;;;;;;4997764;28;1248;-67
2022/06/05 05:17:45;;;;;;;;;;;19.50;64.30;;;;;;5012041;28;1727;-67
2022/06/05 05:20:11;;;;;;;;;;;19.40;64.00;;;;;;4997022;28;1124;-67
2022/06/05 05:22:40;;;;;;;;;;;19.40;64.20;;;;;;4996267;28;1903;-67
2022/06/05 05:25:06;;;;;;;;;;;19.40;64.20;;;;;;4997529;28;1226;-67
2022/06/05 05:27:32;;;;;;;;;;;19.40;64.20;;;;;;4997094;28;1262;-67
2022/06/05 05:29:57;;;;;;;;;;;19.40;64.30;;;;;;4996799;28;1332;-68
2022/06/05 05:32:23;;;;;;;;;;;19.40;64.30;;;;;;5011594;28;1253;-68
2022/06/05 05:34:48;;;;;;;;;;;19.40;64.40;;;;;;4997267;28;1426;-69
2022/06/05 05:37:14;;;;;;;;;;;19.40;64.50;;;;;;5008793;28;1754;-69
2022/06/05 05:42:37;;;;;;;;;;;19.40;65.40;;;;;;4958556;28;1899;-69
2022/06/05 05:45:05;;;;;;;;;;;19.40;64.70;;;;;;4996099;28;1307;-69
2022/06/05 05:47:30;;;;;;;;;;;19.40;64.80;;;;;;4996745;28;1308;-69
2022/06/05 05:49:56;;;;;;;;;;;19.40;64.80;;;;;;4995641;28;1475;-68
2022/06/05 05:52:22;;;;;;;;;;;19.40;64.90;;;;;;5014061;28;1281;-68
2022/06/05 05:54:48;;;;;;;;;;;19.40;64.90;;;;;;4996817;28;1336;-69
2022/06/05 05:57:13;;;;;;;;;;;19.40;65.00;;;;;;5014433;28;1201;-69
2022/06/05 05:59:39;;;;;;;;;;;19.40;65.00;;;;;;5014189;28;1386;-69
2022/06/05 06:02:06;;;;;;;;;;;19.40;65.10;;;;;;5013764;28;1902;-69
2022/06/05 06:04:31;;;;;;;;;;;19.40;65.10;;;;;;4980499;28;1288;-68
2022/06/05 06:06:57;;;;;;;;;;;19.40;65.20;;;;;;5013631;28;1307;-69
2022/06/05 06:09:22;;;;;;;;;;;19.40;65.20;;;;;;5011835;28;998;-69
2022/06/05 06:11:47;;;;;;;;;;;19.40;65.20;;;;;;4994670;28;1314;-67
2022/06/05 06:14:13;;;;;;;;;;;19.40;65.20;;;;;;4996024;28;1159;-68
2022/06/05 06:16:38;;;;;;;;;;;19.40;65.30;;;;;;5013925;28;1306;-68
2022/06/05 06:19:04;;;;;;;;;;;19.40;65.40;;;;;;4995705;28;1336;-68
2022/06/05 06:21:29;;;;;;;;;;;19.40;65.40;;;;;;5012905;28;1906;-68
2022/06/05 06:23:55;;;;;;;;;;;19.40;65.40;;;;;;4995468;28;1379;-67
2022/06/05 06:26:20;;;;;;;;;;;19.40;65.50;;;;;;5013931;28;1212;-66
2022/06/05 06:28:45;;;;;;;;;;;19.40;65.50;;;;;;5012867;28;1276;-68
2022/06/05 06:31:12;;;;;;;;;;;19.40;65.50;;;;;;5012810;28;1080;-67
2022/06/05 06:33:38;;;;;;;;;;;19.40;65.50;;;;;;5000284;28;1139;-68
2022/06/05 06:36:04;;;;;;;;;;;19.40;65.50;;;;;;4992758;28;1492;-67
2022/06/05 06:38:29;;;;;;;;;;;19.40;65.50;;;;;;4974901;28;1698;-69
2022/06/05 06:40:59;;;;;;;;;;;19.40;65.50;;;;;;4992326;28;1201;-68
2022/06/05 06:43:24;;;;;;;;;;;19.40;65.60;;;;;;4994737;28;1961;-66
2022/06/05 06:45:49;;;;;;;;;;;19.40;65.60;;;;;;5012169;28;1337;-66
2022/06/05 06:48:16;;;;;;;;;;;19.40;65.60;;;;;;5012471;28;1080;-67
2022/06/05 06:50:41;;;;;;;;;;;19.40;65.60;;;;;;4994664;28;1307;-67
2022/06/05 06:53:07;;;;;;;;;;;19.40;65.60;;;;;;4995147;28;1116;-66
2022/06/05 06:55:32;;;;;;;;;;;19.40;65.60;;;;;;5003682;28;1295;-70
2022/06/05 06:57:58;;;;;;;;;;;19.40;65.70;;;;;;4988551;28;1293;-70
2022/06/05 07:00:23;;;;;;;;;;;19.40;65.70;;;;;;5003169;28;1103;-70
2022/06/05 07:02:49;;;;;;;;;;;19.40;65.70;;;;;;4986092;28;1910;-69
2022/06/05 07:05:14;;;;;;;;;;;19.40;65.70;;;;;;5012773;28;1361;-69
2022/06/05 07:07:40;;;;;;;;;;;19.40;65.70;;;;;;5012220;28;1267;-69
2022/06/05 07:10:05;;;;;;;;;;;19.40;65.70;;;;;;4983004;28;2007;-70
2022/06/05 07:12:32;;;;;;;;;;;19.40;65.70;;;;;;5022412;28;1206;-69
2022/06/05 07:14:57;;;;;;;;;;;19.40;65.80;;;;;;4996135;28;1088;-69
2022/06/05 07:17:23;;;;;;;;;;;19.40;65.80;;;;;;5012728;28;1283;-68
2022/06/05 07:19:48;;;;;;;;;;;19.40;66.60;;;;;;5008605;28;1222;-69
2022/06/05 07:22:14;;;;;;;;;;;19.40;65.80;;;;;;5013161;28;1969;-70
2022/06/05 07:24:39;;;;;;;;;;;19.40;65.80;;;;;;5013008;28;1238;-69
2022/06/05 07:27:05;;;;;;;;;;;19.40;66.00;;;;;;5012212;28;1284;-70
2022/06/05 07:29:30;;;;;;;;;;;19.50;66.70;;;;;;5012716;28;1069;-70
2022/06/05 07:31:55;;;;;;;;;;;19.60;66.70;;;;;;5012638;28;1375;-70
2022/06/05 07:34:21;;;;;;;;;;;19.60;66.70;;;;;;5006325;28;1096;-70
2022/06/05 07:36:46;;;;;;;;;;;19.60;66.90;;;;;;5006494;28;1562;-70
2022/06/05 07:39:12;;;;;;;;;;;19.70;67.10;;;;;;4995276;28;1615;-69
2022/06/05 07:41:37;;;;;;;;;;;19.70;67.10;;;;;;5012392;28;1965;-70
2022/06/05 07:44:03;;;;;;;;;;;19.80;67.30;;;;;;5012672;28;863;-69
2022/06/05 07:46:29;;;;;;;;;;;19.80;67.40;;;;;;5012292;28;1255;-69
2022/06/05 07:48:55;;;;;;;;;;;19.80;67.40;;;;;;5006018;28;1148;-69
2022/06/05 07:56:50;;;;;;;;;;;19.80;66.90;;;;;;4997943;28;1310;-69
2022/06/05 07:59:16;;;;;;;;;;;19.80;67.00;;;;;;5001351;28;1048;-69
2022/06/05 08:01:41;;;;;;;;;;;19.80;66.90;;;;;;4987851;28;1961;-69
2022/06/05 08:04:07;;;;;;;;;;;19.80;67.00;;;;;;4986918;28;1076;-69
2022/06/05 08:06:35;;;;;;;;;;;19.80;67.10;;;;;;4999868;28;1338;-69
2022/06/05 08:09:01;;;;;;;;;;;19.80;67.10;;;;;;4995137;28;1085;-70
2022/06/05 08:11:27;;;;;;;;;;;19.80;67.20;;;;;;4998527;28;1165;-69
2022/06/05 08:13:52;;;;;;;;;;;19.80;67.30;;;;;;5012962;28;1061;-70
2022/06/05 08:16:18;;;;;;;;;;;19.80;67.30;;;;;;5012486;28;1328;-70
2022/06/05 08:18:43;;;;;;;;;;;19.80;67.50;;;;;;5012221;28;1092;-69
2022/06/05 08:21:09;;;;;;;;;;;19.80;67.50;;;;;;5011596;28;1281;-69
2022/06/05 08:23:35;;;;;;;;;;;19.80;67.50;;;;;;5012232;28;1895;-69
2022/06/05 08:26:00;;;;;;;;;;;19.80;67.60;;;;;;5001445;28;1258;-69
2022/06/05 08:28:25;;;;;;;;;;;19.80;67.60;;;;;;5012711;28;1048;-70
2022/06/05 08:30:52;;;;;;;;;;;19.80;67.90;;;;;;5011856;28;1101;-70
2022/06/05 08:33:17;;;;;;;;;;;19.80;68.20;;;;;;5012185;28;1256;-70
2022/06/05 08:35:44;;;;;;;;;;;19.80;68.10;;;;;;4994416;28;1319;-69
2022/06/05 08:43:55;;;;;;;;;;;19.90;68.00;;;;;;5011794;28;1093;-69
2022/06/05 08:46:26;;;;;;;;;;;19.90;68.00;;;;;;4994196;28;1378;-69
2022/06/05 08:48:52;;;;;;;;;;;19.90;68.20;;;;;;4994221;28;1380;-68
2022/06/05 08:51:21;;;;;;;;;;;19.90;68.20;;;;;;5011513;28;1089;-70
2022/06/05 08:54:03;;;;;;;;;;;19.90;68.40;;;;;;4994732;28;1305;-70
2022/06/05 08:56:45;;;;;;;;;;;19.90;68.50;;;;;;4994720;28;1316;-69
2022/06/05 08:59:24;;;;;;;;;;;19.90;68.50;;;;;;4998580;28;1278;-69
2022/06/05 09:01:57;;;;;;;;;;;19.90;68.60;;;;;;4998201;28;1969;-70
2022/06/05 09:04:26;;;;;;;;;;;19.90;68.60;;;;;;4997619;28;1447;-69
2022/06/05 09:06:57;;;;;;;;;;;19.90;68.60;;;;;;5015696;28;1359;-70
2022/06/05 09:09:25;;;;;;;;;;;19.90;68.60;;;;;;4979692;28;1873;-70
2022/06/05 09:12:05;;;;;;;;;;;19.90;68.60;;;;;;5002578;28;1397;-69
2022/06/05 09:14:31;;;;;;;;;;;19.90;68.70;;;;;;5012263;28;2140;-70
2022/06/05 09:16:57;;;;;;;;;;;19.90;68.90;;;;;;5015385;28;1269;-70
2022/06/05 09:19:26;;;;;;;;;;;19.90;70.20;;;;;;5015169;28;1290;-69
2022/06/05 09:21:54;;;;;;;;;;;20.00;70.40;;;;;;5014438;28;1953;-69
2022/06/05 09:24:23;;;;;;;;;;;20.00;69.80;;;;;;4993894;28;1890;-70
2022/06/05 09:26:48;;;;;;;;;;;20.00;69.50;;;;;;5012931;28;1362;-70
2022/06/05 09:29:14;;;;;;;;;;;20.00;69.50;;;;;;5014726;28;1377;-69
2022/06/05 09:31:39;;;;;;;;;;;20.00;69.50;;;;;;5009193;28;2234;-70
2022/06/05 09:34:09;;;;;;;;;;;20.00;69.50;;;;;;5014692;28;1312;-70
2022/06/05 09:36:35;;;;;;;;;;;20.00;69.60;;;;;;5003356;28;1296;-70
2022/06/05 09:39:19;;;;;;;;;;;20.00;70.40;;;;;;4997763;28;1437;-70
2022/06/05 09:41:50;;;;;;;;;;;20.00;69.80;;;;;;5014539;28;1906;-70
2022/06/05 09:44:22;;;;;;;;;;;20.00;69.90;;;;;;5014880;28;1300;-70
2022/06/05 09:46:58;;;;;;;;;;;20.00;70.00;;;;;;5057981;23;3766;-72
2022/06/05 09:49:34;;;;;;;;;;;20.00;70.10;;;;;;5094635;28;1168;-71
2022/06/05 09:52:05;;;;;;;;;;;20.00;70.30;;;;;;5094418;28;1301;-72
2022/06/05 09:54:31;;;;;;;;;;;20.00;70.40;;;;;;5095800;28;1134;-72
2022/06/05 09:59:46;;;;;;;;;;;20.00;72.00;;;;;;5093970;28;1257;-70
2022/06/05 10:02:15;;;;;;;;;;;20.00;71.90;;;;;;5092739;28;1913;-71
2022/06/05 10:04:41;;;;;;;;;;;20.10;71.80;;;;;;5095436;28;1359;-71
2022/06/05 10:07:08;;;;;;;;;;;20.10;71.70;;;;;;5096247;28;1293;-71
2022/06/05 10:09:38;;;;;;;;;;;20.10;71.60;;;;;;5093838;28;1327;-71
2022/06/05 10:12:04;;;;;;;;;;;20.10;71.50;;;;;;5096001;28;1251;-71
2022/06/05 10:14:32;;;;;;;;;;;20.10;71.30;;;;;;5096243;28;1296;-71
2022/06/05 10:16:57;;;;;;;;;;;20.10;71.20;;;;;;5094972;28;1358;-72
2022/06/05 10:19:29;;;;;;;;;;;20.10;71.20;;;;;;5081531;28;1290;-71
2022/06/05 10:22:24;;;;;;;;;;;20.10;71.30;;;;;;5072073;28;1959;-71
2022/06/05 10:25:05;;;;;;;;;;;20.10;71.20;;;;;;5063647;28;1370;-71
2022/06/05 10:27:30;;;;;;;;;;;20.10;71.20;;;;;;5071188;28;1410;-70
2022/06/05 10:29:56;;;;;;;;;;;20.10;71.50;;;;;;5072106;28;1359;-72
2022/06/05 10:32:21;;;;;;;;;;;20.10;71.60;;;;;;5072659;28;1529;-72
2022/06/05 10:34:48;;;;;;;;;;;20.10;71.50;;;;;;5073778;28;1327;-71
2022/06/05 10:37:14;;;;;;;;;;;20.10;71.50;;;;;;5072570;28;1369;-72
2022/06/05 10:39:52;;;;;;;;;;;20.20;71.40;;;;;;5073460;28;1607;-72
2022/06/05 10:42:28;;;;;;;;;;;20.20;71.30;;;;;;5073967;28;1902;-71
2022/06/05 10:45:06;;;;;;;;;;;20.20;71.20;;;;;;5073351;28;1342;-70
2022/06/05 10:47:32;;;;;;;;;;;20.20;71.10;;;;;;5081958;28;1340;-72
2022/06/05 10:50:10;;;;;;;;;;;20.20;71.10;;;;;;5076063;28;1325;-71
2022/06/05 10:52:45;;;;;;;;;;;20.20;70.90;;;;;;5076891;28;1277;-72
2022/06/05 10:55:25;;;;;;;;;;;20.20;70.90;;;;;;5077011;28;1320;-72
2022/06/05 10:57:53;;;;;;;;;;;20.20;71.10;;;;;;5074995;28;1342;-72
2022/06/05 11:00:19;;;;;;;;;;;20.20;71.10;;;;;;5071327;28;1125;-72
2022/06/05 11:02:51;;;;;;;;;;;20.20;71.10;;;;;;5072044;28;1968;-70
2022/06/05 11:05:36;;;;;;;;;;;20.20;71.20;;;;;;5073128;28;1255;-72
2022/06/05 11:08:21;;;;;;;;;;;20.20;71.50;;;;;;5073554;28;1348;-71
2022/06/05 11:14:15;;;;;;;;;;;20.20;71.40;;;;;;5036619;28;1217;-71
2022/06/05 11:16:40;;;;;;;;;;;20.20;71.30;;;;;;5060816;28;1356;-71
2022/06/05 11:19:35;;;;;;;;;;;20.20;71.40;;;;;;5062703;28;1483;-69
2022/06/05 11:22:01;;;;;;;;;;;20.20;71.40;;;;;;5074003;28;1897;-70
2022/06/05 11:24:34;;;;;;;;;;;20.20;71.60;;;;;;5091634;28;1372;-71
2022/06/05 11:27:04;;;;;;;;;;;20.20;71.50;;;;;;5076272;28;1283;-71
2022/06/05 11:29:33;;;;;;;;;;;20.20;71.50;;;;;;5071585;28;1269;-70
2022/06/05 11:31:58;;;;;;;;;;;20.20;71.50;;;;;;5071881;28;1377;-69
2022/06/05 11:34:27;;;;;;;;;;;20.20;71.40;;;;;;5071393;28;1367;-71
2022/06/05 11:36:53;;;;;;;;;;;20.20;71.40;;;;;;5071215;28;1852;-70
2022/06/05 11:39:19;;;;;;;;;;;20.20;71.40;;;;;;5071346;28;1572;-70
2022/06/05 11:42:02;;;;;;;;;;;20.20;71.40;;;;;;5071934;28;1977;-71
2022/06/05 11:44:42;;;;;;;;;;;20.20;71.40;;;;;;5072354;28;1316;-71
2022/06/05 11:47:08;;;;;;;;;;;20.20;71.50;;;;;;5070999;28;1263;-70
2022/06/05 11:49:52;;;;;;;;;;;20.20;71.60;;;;;;5072097;28;1094;-70
2022/06/05 11:52:20;;;;;;;;;;;20.20;71.50;;;;;;5070948;28;1171;-70
2022/06/05 11:54:55;;;;;;;;;;;20.20;71.30;;;;;;5071043;28;1292;-71
2022/06/05 11:57:24;;;;;;;;;;;20.20;71.20;;;;;;5071149;28;1317;-70
2022/06/05 12:00:06;;;;;;;;;;;20.20;71.20;;;;;;5072023;28;1442;-71
2022/06/05 12:02:38;;;;;;;;;;;20.20;71.20;;;;;;5072269;28;1917;-69
2022/06/05 12:05:03;;;;;;;;;;;20.20;71.60;;;;;;5072153;28;1252;-69
2022/06/05 12:07:29;;;;;;;;;;;20.20;68.90;;;;;;5072297;28;1224;-70
2022/06/05 12:10:01;;;;;;;;;;;20.30;69.00;;;;;;5071955;28;1374;-70
2022/06/05 12:12:31;;;;;;;;;;;20.30;68.50;;;;;;5070761;28;1270;-70
2022/06/05 12:15:06;;;;;;;;;;;20.30;68.00;;;;;;5071086;28;1318;-70
2022/06/05 12:17:33;;;;;;;;;;;20.30;67.50;;;;;;5071031;28;1274;-70
2022/06/05 12:20:10;;;;;;;;;;;20.30;66.60;;;;;;5070230;28;1134;-70
2022/06/05 12:22:55;;;;;;;;;;;20.30;66.10;;;;;;5070641;28;1913;-70
2022/06/05 12:25:41;;;;;;;;;;;20.30;65.80;;;;;;5069116;28;1341;-70
2022/06/05 12:28:07;;;;;;;;;;;20.30;65.40;;;;;;5053822;28;1357;-70
2022/06/05 12:30:34;;;;;;;;;;;20.30;65.10;;;;;;5070179;28;1309;-70
2022/06/05 12:33:05;;;;;;;;;;;20.30;64.80;;;;;;5074153;28;1362;-70
2022/06/05 12:35:32;;;;;;;;;;;20.30;64.30;;;;;;5070423;28;1269;-68
2022/06/05 12:38:11;;;;;;;;;;;20.30;63.70;;;;;;5075591;28;1432;-69
2022/06/05 12:40:37;;;;;;;;;;;20.30;63.70;;;;;;5074693;28;1610;-70
2022/06/05 12:43:11;;;;;;;;;;;20.30;62.20;;;;;;5075691;28;1910;-70
2022/06/05 12:45:38;;;;;;;;;;;20.30;60.20;;;;;;5074269;28;1244;-71
2022/06/05 12:48:13;;;;;;;;;;;20.30;61.60;;;;;;5073634;28;1067;-71
2022/06/05 12:50:41;;;;;;;;;;;20.30;61.20;;;;;;5093993;28;1268;-71
2022/06/05 12:53:12;;;;;;;;;;;20.40;62.00;;;;;;5094501;28;1090;-71
2022/06/05 12:55:49;;;;;;;;;;;20.40;62.20;;;;;;5093931;28;1320;-71
2022/06/05 12:58:19;;;;;;;;;;;20.40;61.10;;;;;;5095404;28;1318;-71
2022/06/05 13:00:48;;;;;;;;;;;20.40;58.60;;;;;;5093996;28;1074;-71
2022/06/05 13:03:32;;;;;;;;;;;20.40;58.40;;;;;;5095411;28;1913;-72
2022/06/05 13:06:18;;;;;;;;;;;20.40;59.50;;;;;;5093586;28;1272;-71
2022/06/05 13:08:43;;;;;;;;;;;20.50;59.90;;;;;;5094053;28;1396;-71
2022/06/05 13:11:24;;;;;;;;;;;20.50;59.80;;;;;;5079164;28;1984;-70
2022/06/05 13:13:56;;;;;;;;;;;20.50;60.00;;;;;;5065746;28;1350;-71
2022/06/05 13:16:22;;;;;;;;;;;20.50;59.50;;;;;;5084694;28;1311;-70
2022/06/05 13:18:51;;;;;;;;;;;20.50;58.90;;;;;;5085382;28;1309;-71
2022/06/05 13:21:18;;;;;;;;;;;20.50;58.40;;;;;;5072717;28;1037;-70
2022/06/05 13:23:53;;;;;;;;;;;20.50;58.40;;;;;;5064438;28;1901;-72
2022/06/05 13:26:23;;;;;;;;;;;20.50;55.90;;;;;;5085063;28;1248;-71
2022/06/05 13:28:48;;;;;;;;;;;20.60;56.50;;;;;;5073727;28;1329;-71
2022/06/05 13:31:20;;;;;;;;;;;20.70;56.30;;;;;;5068771;28;1141;-71
2022/06/05 13:33:51;;;;;;;;;;;20.70;56.00;;;;;;5089074;28;1209;-71
2022/06/05 13:36:21;;;;;;;;;;;20.70;56.30;;;;;;5092877;28;1365;-71
2022/06/05 13:38:52;;;;;;;;;;;20.80;56.60;;;;;;5090691;28;1375;-71
2022/06/05 13:41:26;;;;;;;;;;;20.80;56.70;;;;;;5072835;28;1384;-71
2022/06/05 13:44:21;;;;;;;;;;;20.80;57.30;;;;;;5073935;28;1390;-71
2022/06/05 13:46:51;;;;;;;;;;;20.70;58.00;;;;;;5065117;28;1362;-71
2022/06/05 13:49:20;;;;;;;;;;;20.70;58.50;;;;;;5073025;28;1360;-71
2022/06/05 13:51:47;;;;;;;;;;;20.70;58.10;;;;;;5073156;28;1115;-70
2022/06/05 13:54:39;;;;;;;;;;;20.70;57.60;;;;;;5073178;28;1059;-70
2022/06/05 13:57:14;;;;;;;;;;;20.70;57.10;;;;;;5072261;28;1293;-71
2022/06/05 13:59:41;;;;;;;;;;;20.70;57.80;;;;;;5072462;28;1320;-71
2022/06/05 14:02:25;;;;;;;;;;;20.70;58.40;;;;;;5074007;28;1918;-71
2022/06/05 14:04:57;;;;;;;;;;;20.60;58.50;;;;;;5073350;28;1294;-72
2022/06/05 14:07:22;;;;;;;;;;;20.60;58.70;;;;;;5073681;28;1345;-72
2022/06/05 14:09:51;;;;;;;;;;;20.60;58.80;;;;;;5072817;28;1315;-71
2022/06/05 14:12:24;;;;;;;;;;;20.60;58.90;;;;;;5072216;28;1365;-71
2022/06/05 14:14:49;;;;;;;;;;;20.60;59.00;;;;;;5072562;28;1281;-71
2022/06/05 14:17:33;;;;;;;;;;;20.60;59.20;;;;;;5073938;28;1403;-71
2022/06/05 14:20:00;;;;;;;;;;;20.60;58.60;;;;;;5073372;28;1233;-72
2022/06/05 14:22:26;;;;;;;;;;;20.60;58.10;;;;;;5092625;28;1905;-72
2022/06/05 14:24:52;;;;;;;;;;;20.60;58.50;;;;;;5094008;28;1321;-71
2022/06/05 14:27:24;;;;;;;;;;;20.60;58.90;;;;;;5074966;28;1377;-72
2022/06/05 14:29:49;;;;;;;;;;;20.50;59.20;;;;;;5072211;28;1379;-71
2022/06/05 14:32:23;;;;;;;;;;;20.50;59.30;;;;;;5071738;28;1279;-71
2022/06/05 14:34:49;;;;;;;;;;;20.50;59.30;;;;;;5072303;28;1311;-71
2022/06/05 14:37:24;;;;;;;;;;;20.50;59.10;;;;;;5072085;28;1331;-71
2022/06/05 14:39:49;;;;;;;;;;;20.50;59.10;;;;;;5072907;28;1573;-71
2022/06/05 14:42:27;;;;;;;;;;;20.50;59.30;;;;;;5073006;28;2011;-72
2022/06/05 14:44:56;;;;;;;;;;;20.50;59.50;;;;;;5072053;28;1376;-72
2022/06/05 14:47:39;;;;;;;;;;;20.50;59.60;;;;;;5072364;28;1279;-71
2022/06/05 14:50:05;;;;;;;;;;;20.50;59.20;;;;;;5071238;28;1345;-71
2022/06/05 14:52:34;;;;;;;;;;;20.50;58.90;;;;;;5072048;28;1370;-71
2022/06/05 14:57:55;;;;;;;;;;;20.50;58.20;;;;;;5072390;28;1393;-71
2022/06/05 15:00:32;;;;;;;;;;;20.50;58.50;;;;;;5072385;28;1339;-72
2022/06/05 15:03:08;;;;;;;;;;;20.50;58.80;;;;;;5071385;28;1914;-71
2022/06/05 15:05:36;;;;;;;;;;;20.50;59.10;;;;;;5072807;28;1271;-71
2022/06/05 15:08:27;;;;;;;;;;;20.50;59.10;;;;;;5071584;28;1305;-72